createdAt,value
2017-05-28T00:00:01.210Z,813.36
2017-05-28T00:00:05.407Z,813.41
2017-05-28T00:00:09.612Z,813.37
2017-05-28T00:00:13.806Z,813.38
2017-05-28T00:00:17.884Z,813.42
2017-05-28T00:00:22.192Z,813.46
2017-05-28T00:00:26.263Z,813.42
2017-05-28T00:00:30.570Z,813.48
2017-05-28T00:00:35.000Z,813.45
2017-05-28T00:00:39.197Z,813.48
2017-05-28T00:00:43.624Z,813.51
2017-05-28T00:00:47.937Z,813.52
2017-05-28T00:00:52.363Z,813.48
2017-05-28T00:00:56.670Z,813.52
2017-05-28T00:01:00.865Z,813.55
2017-05-28T00:01:05.256Z,813.59
2017-05-28T00:01:09.575Z,813.58
2017-05-28T00:01:13.894Z,813.61
2017-05-28T00:01:18.093Z,813.56
2017-05-28T00:01:22.400Z,813.61
2017-05-28T00:01:26.710Z,813.56
2017-05-28T00:01:31.141Z,813.63
2017-05-28T00:01:35.573Z,813.65
2017-05-28T00:01:39.885Z,813.65
2017-05-28T00:01:44.193Z,813.67
2017-05-28T00:01:48.509Z,813.66
2017-05-28T00:01:52.819Z,813.66
2017-05-28T00:01:57.130Z,813.68
2017-05-28T00:02:01.326Z,813.72
2017-05-28T00:02:05.847Z,813.72
2017-05-28T00:02:10.038Z,813.75
2017-05-28T00:02:14.231Z,813.75
2017-05-28T00:02:18.553Z,813.76
2017-05-28T00:02:22.869Z,813.78
2017-05-28T00:02:27.298Z,813.8
2017-05-28T00:02:31.761Z,813.79
2017-05-28T00:02:36.196Z,813.84
2017-05-28T00:02:40.507Z,813.85
2017-05-28T00:02:44.941Z,813.86
2017-05-28T00:02:49.251Z,813.86
2017-05-28T00:02:53.452Z,813.88
2017-05-28T00:02:57.778Z,813.89
2017-05-28T00:03:02.203Z,813.9
2017-05-28T00:03:06.513Z,813.9
2017-05-28T00:03:10.705Z,813.92
2017-05-28T00:03:15.128Z,813.97
2017-05-28T00:03:19.200Z,813.96
2017-05-28T00:03:23.525Z,814.01
2017-05-28T00:03:27.965Z,813.99
2017-05-28T00:03:32.281Z,814.02
2017-05-28T00:03:36.717Z,814.06
2017-05-28T00:03:41.141Z,814.04
2017-05-28T00:03:45.460Z,814.08
2017-05-28T00:03:49.774Z,814.06
2017-05-28T00:03:54.092Z,814.09
2017-05-28T00:03:58.466Z,814.11
2017-05-28T00:04:03.085Z,814.15
2017-05-28T00:04:07.397Z,814.13
2017-05-28T00:04:11.704Z,814.18
2017-05-28T00:04:16.131Z,814.18
2017-05-28T00:04:20.438Z,814.19
2017-05-28T00:04:24.755Z,814.21
2017-05-28T00:04:29.127Z,814.22
2017-05-28T00:04:33.438Z,814.23
2017-05-28T00:04:37.509Z,814.26
2017-05-28T00:04:41.818Z,814.29
2017-05-28T00:04:46.252Z,814.29
2017-05-28T00:04:50.685Z,814.33
2017-05-28T00:04:55.186Z,814.33
2017-05-28T00:04:59.644Z,814.34
2017-05-28T00:05:04.149Z,814.39
2017-05-28T00:05:08.335Z,814.38
2017-05-28T00:05:12.639Z,814.39
2017-05-28T00:05:16.946Z,814.39
2017-05-28T00:05:21.379Z,814.4
2017-05-28T00:05:25.818Z,814.41
2017-05-28T00:05:30.122Z,814.43
2017-05-28T00:05:34.550Z,814.47
2017-05-28T00:05:38.737Z,814.49
2017-05-28T00:05:42.805Z,814.51
2017-05-28T00:05:47.229Z,814.48
2017-05-28T00:05:51.678Z,814.47
2017-05-28T00:05:56.122Z,814.47
2017-05-28T00:06:00.547Z,814.54
2017-05-28T00:06:04.973Z,814.53
2017-05-28T00:06:08.695Z,814.56
2017-05-28T00:06:13.001Z,814.55
2017-05-28T00:06:17.198Z,814.58
2017-05-28T00:06:21.163Z,814.59
2017-05-28T00:06:25.511Z,814.61
2017-05-28T00:06:29.934Z,814.6
2017-05-28T00:06:34.364Z,814.6
2017-05-28T00:06:38.671Z,814.65
2017-05-28T00:06:42.861Z,814.64
2017-05-28T00:06:47.296Z,814.68
2017-05-28T00:06:51.687Z,814.68
2017-05-28T00:06:55.994Z,814.7
2017-05-28T00:07:00.305Z,814.63
2017-05-28T00:07:04.864Z,814.7
2017-05-28T00:07:08.942Z,814.75
2017-05-28T00:07:13.255Z,814.75
2017-05-28T00:07:17.725Z,814.76
2017-05-28T00:07:21.919Z,814.77
2017-05-28T00:07:26.110Z,814.77
2017-05-28T00:07:30.533Z,814.8
2017-05-28T00:07:34.852Z,814.8
2017-05-28T00:07:39.170Z,814.81
2017-05-28T00:07:43.619Z,814.8
2017-05-28T00:07:48.061Z,814.82
2017-05-28T00:07:52.374Z,814.83
2017-05-28T00:07:56.684Z,814.85
2017-05-28T00:08:01.116Z,814.88
2017-05-28T00:08:05.431Z,814.87
2017-05-28T00:08:09.507Z,814.85
2017-05-28T00:08:13.993Z,814.88
2017-05-28T00:08:18.074Z,814.89
2017-05-28T00:08:22.148Z,814.91
2017-05-28T00:08:26.583Z,814.9
2017-05-28T00:08:31.019Z,814.91
2017-05-28T00:08:35.638Z,814.89
2017-05-28T00:08:39.954Z,814.9
2017-05-28T00:08:44.270Z,814.88
2017-05-28T00:08:48.696Z,814.95
2017-05-28T00:08:53.120Z,814.96
2017-05-28T00:08:57.436Z,814.96
2017-05-28T00:09:01.743Z,814.99
2017-05-28T00:09:06.418Z,815
2017-05-28T00:09:10.503Z,815.01
2017-05-28T00:09:14.818Z,814.99
2017-05-28T00:09:19.253Z,815.01
2017-05-28T00:09:23.571Z,815.03
2017-05-28T00:09:27.887Z,815.03
2017-05-28T00:09:32.320Z,815.06
2017-05-28T00:09:36.763Z,815.08
2017-05-28T00:09:40.958Z,815.08
2017-05-28T00:09:45.264Z,815.08
2017-05-28T00:09:49.692Z,815.08
2017-05-28T00:09:54.117Z,815.1
2017-05-28T00:09:58.428Z,815.07
2017-05-28T00:10:02.742Z,815.1
2017-05-28T00:10:07.057Z,815.12
2017-05-28T00:10:11.023Z,815.12
2017-05-28T00:10:15.213Z,815.14
2017-05-28T00:10:19.523Z,815.14
2017-05-28T00:10:23.713Z,815.09
2017-05-28T00:10:27.903Z,815.1
2017-05-28T00:10:32.338Z,815.13
2017-05-28T00:10:36.787Z,815.12
2017-05-28T00:10:41.098Z,815.15
2017-05-28T00:10:45.523Z,815.14
2017-05-28T00:10:49.947Z,815.16
2017-05-28T00:10:54.376Z,815.17
2017-05-28T00:10:58.452Z,815.16
2017-05-28T00:11:03.236Z,815.16
2017-05-28T00:11:07.675Z,815.13
2017-05-28T00:11:11.980Z,815.15
2017-05-28T00:11:16.171Z,815.14
2017-05-28T00:11:20.480Z,815.18
2017-05-28T00:11:24.909Z,815.16
2017-05-28T00:11:29.219Z,815.18
2017-05-28T00:11:33.713Z,815.18
2017-05-28T00:11:38.140Z,815.15
2017-05-28T00:11:42.450Z,815.19
2017-05-28T00:11:46.892Z,815.18
2017-05-28T00:11:51.314Z,815.19
2017-05-28T00:11:55.739Z,815.18
2017-05-28T00:11:59.824Z,815.18
2017-05-28T00:12:04.308Z,815.18
2017-05-28T00:12:08.621Z,815.2
2017-05-28T00:12:13.049Z,815.2
2017-05-28T00:12:17.124Z,815.16
2017-05-28T00:12:21.313Z,815.21
2017-05-28T00:12:25.403Z,815.2
2017-05-28T00:12:29.720Z,815.23
2017-05-28T00:12:34.159Z,815.2
2017-05-28T00:12:38.594Z,815.17
2017-05-28T00:12:42.794Z,815.15
2017-05-28T00:12:47.231Z,815.2
2017-05-28T00:12:51.537Z,815.21
2017-05-28T00:12:55.969Z,815.21
2017-05-28T00:13:00.169Z,815.21
2017-05-28T00:13:04.668Z,815.19
2017-05-28T00:13:08.997Z,815.2
2017-05-28T00:13:13.301Z,815.19
2017-05-28T00:13:17.608Z,815.2
2017-05-28T00:13:22.034Z,815.22
2017-05-28T00:13:26.231Z,815.2
2017-05-28T00:13:30.669Z,815.21
2017-05-28T00:13:35.243Z,815.18
2017-05-28T00:13:39.566Z,815.17
2017-05-28T00:13:44.003Z,815.2
2017-05-28T00:13:48.441Z,815.19
2017-05-28T00:13:52.748Z,815.19
2017-05-28T00:13:57.066Z,815.12
2017-05-28T00:14:01.161Z,815.17
2017-05-28T00:14:05.779Z,815.13
2017-05-28T00:14:09.988Z,815.18
2017-05-28T00:14:14.295Z,815.21
2017-05-28T00:14:18.486Z,815.21
2017-05-28T00:14:22.914Z,815.2
2017-05-28T00:14:27.344Z,815.16
2017-05-28T00:14:31.543Z,815.16
2017-05-28T00:14:36.052Z,815.17
2017-05-28T00:14:40.482Z,815.14
2017-05-28T00:14:44.907Z,815.15
2017-05-28T00:14:49.338Z,815.12
2017-05-28T00:14:53.529Z,815.18
2017-05-28T00:14:57.962Z,815.14
2017-05-28T00:15:02.177Z,815.13
2017-05-28T00:15:06.607Z,815.17
2017-05-28T00:15:10.927Z,815.14
2017-05-28T00:15:15.115Z,815.14
2017-05-28T00:15:19.542Z,815.14
2017-05-28T00:15:23.987Z,815.12
2017-05-28T00:15:28.296Z,815.12
2017-05-28T00:15:32.371Z,815.15
2017-05-28T00:15:36.804Z,815.04
2017-05-28T00:15:41.236Z,815.14
2017-05-28T00:15:45.547Z,815.11
2017-05-28T00:15:49.971Z,815.08
2017-05-28T00:15:54.280Z,815.07
2017-05-28T00:15:58.704Z,815.08
2017-05-28T00:16:03.270Z,815.1
2017-05-28T00:16:07.592Z,815.07
2017-05-28T00:16:11.898Z,815.07
2017-05-28T00:16:16.089Z,815.08
2017-05-28T00:16:20.517Z,815.08
2017-05-28T00:16:24.955Z,815.04
2017-05-28T00:16:29.332Z,815.04
2017-05-28T00:16:33.645Z,815.04
2017-05-28T00:16:37.623Z,815.06
2017-05-28T00:16:41.991Z,815.03
2017-05-28T00:16:46.423Z,815.05
2017-05-28T00:16:50.849Z,815.05
2017-05-28T00:16:55.039Z,815.05
2017-05-28T00:16:59.470Z,815.06
2017-05-28T00:17:03.881Z,815.01
2017-05-28T00:17:08.198Z,815.05
2017-05-28T00:17:12.514Z,814.99
2017-05-28T00:17:16.544Z,815.01
2017-05-28T00:17:20.850Z,815.03
2017-05-28T00:17:25.038Z,814.97
2017-05-28T00:17:29.348Z,814.95
2017-05-28T00:17:33.777Z,814.99
2017-05-28T00:17:38.097Z,814.96
2017-05-28T00:17:42.536Z,814.95
2017-05-28T00:17:46.856Z,814.96
2017-05-28T00:17:51.278Z,814.97
2017-05-28T00:17:55.705Z,814.92
2017-05-28T00:18:00.132Z,814.97
2017-05-28T00:18:04.494Z,814.96
2017-05-28T00:18:08.813Z,814.94
2017-05-28T00:18:13.263Z,814.92
2017-05-28T00:18:17.470Z,814.87
2017-05-28T00:18:21.896Z,814.91
2017-05-28T00:18:26.204Z,814.93
2017-05-28T00:18:30.635Z,814.85
2017-05-28T00:18:34.719Z,814.86
2017-05-28T00:18:38.916Z,814.9
2017-05-28T00:18:43.007Z,814.83
2017-05-28T00:18:47.445Z,814.85
2017-05-28T00:18:51.877Z,814.85
2017-05-28T00:18:56.312Z,814.83
2017-05-28T00:19:00.622Z,814.82
2017-05-28T00:19:05.183Z,814.82
2017-05-28T00:19:09.390Z,814.83
2017-05-28T00:19:13.830Z,814.79
2017-05-28T00:19:17.793Z,814.78
2017-05-28T00:19:21.983Z,814.77
2017-05-28T00:19:26.185Z,814.77
2017-05-28T00:19:30.146Z,814.76
2017-05-28T00:19:34.460Z,814.74
2017-05-28T00:19:38.889Z,814.76
2017-05-28T00:19:43.267Z,814.73
2017-05-28T00:19:47.712Z,814.73
2017-05-28T00:19:52.027Z,814.75
2017-05-28T00:19:56.451Z,814.69
2017-05-28T00:20:00.763Z,814.71
2017-05-28T00:20:05.071Z,814.66
2017-05-28T00:20:09.385Z,814.63
2017-05-28T00:20:13.829Z,814.67
2017-05-28T00:20:18.014Z,814.66
2017-05-28T00:20:22.203Z,814.63
2017-05-28T00:20:26.517Z,814.62
2017-05-28T00:20:30.834Z,814.6
2017-05-28T00:20:35.267Z,814.62
2017-05-28T00:20:39.705Z,814.6
2017-05-28T00:20:44.148Z,814.58
2017-05-28T00:20:48.568Z,814.58
2017-05-28T00:20:52.877Z,814.57
2017-05-28T00:20:57.301Z,814.54
2017-05-28T00:21:01.978Z,814.54
2017-05-28T00:21:06.293Z,814.53
2017-05-28T00:21:10.610Z,814.5
2017-05-28T00:21:14.801Z,814.5
2017-05-28T00:21:19.117Z,814.48
2017-05-28T00:21:23.559Z,814.46
2017-05-28T00:21:27.985Z,814.48
2017-05-28T00:21:32.295Z,814.44
2017-05-28T00:21:36.507Z,814.45
2017-05-28T00:21:40.932Z,814.42
2017-05-28T00:21:45.361Z,814.41
2017-05-28T00:21:49.792Z,814.42
2017-05-28T00:21:54.223Z,814.37
2017-05-28T00:21:58.529Z,814.38
2017-05-28T00:22:02.960Z,814.34
2017-05-28T00:22:07.159Z,814.33
2017-05-28T00:22:11.469Z,814.35
2017-05-28T00:22:15.777Z,814.33
2017-05-28T00:22:20.213Z,814.3
2017-05-28T00:22:24.289Z,814.29
2017-05-28T00:22:28.713Z,814.29
2017-05-28T00:22:33.145Z,814.29
2017-05-28T00:22:37.568Z,814.27
2017-05-28T00:22:41.758Z,814.25
2017-05-28T00:22:46.185Z,814.23
2017-05-28T00:22:50.610Z,814.22
2017-05-28T00:22:55.038Z,814.16
2017-05-28T00:22:59.474Z,814.16
2017-05-28T00:23:03.799Z,814.2
2017-05-28T00:23:08.224Z,814.18
2017-05-28T00:23:12.534Z,814.19
2017-05-28T00:23:16.725Z,814.1
2017-05-28T00:23:21.029Z,814.14
2017-05-28T00:23:25.456Z,814.12
2017-05-28T00:23:29.946Z,814.11
2017-05-28T00:23:34.023Z,814.07
2017-05-28T00:23:38.217Z,814.09
2017-05-28T00:23:42.530Z,814.02
2017-05-28T00:23:46.969Z,814
2017-05-28T00:23:51.396Z,814.05
2017-05-28T00:23:55.591Z,814.03
2017-05-28T00:23:59.912Z,813.98
2017-05-28T00:24:04.346Z,813.93
2017-05-28T00:24:08.773Z,813.96
2017-05-28T00:24:13.077Z,813.97
2017-05-28T00:24:17.265Z,813.92
2017-05-28T00:24:21.692Z,813.93
2017-05-28T00:24:26.082Z,813.94
2017-05-28T00:24:30.512Z,813.92
2017-05-28T00:24:34.943Z,813.85
2017-05-28T00:24:39.370Z,813.85
2017-05-28T00:24:43.446Z,813.85
2017-05-28T00:24:47.878Z,813.86
2017-05-28T00:24:52.384Z,813.83
2017-05-28T00:24:56.587Z,813.8
2017-05-28T00:25:01.022Z,813.77
2017-05-28T00:25:05.328Z,813.8
2017-05-28T00:25:09.633Z,813.74
2017-05-28T00:25:13.705Z,813.71
2017-05-28T00:25:18.017Z,813.74
2017-05-28T00:25:22.445Z,813.73
2017-05-28T00:25:26.758Z,813.66
2017-05-28T00:25:31.192Z,813.7
2017-05-28T00:25:35.380Z,813.67
2017-05-28T00:25:39.686Z,813.62
2017-05-28T00:25:43.883Z,813.65
2017-05-28T00:25:48.316Z,813.63
2017-05-28T00:25:52.756Z,813.62
2017-05-28T00:25:57.071Z,813.58
2017-05-28T00:26:01.379Z,813.58
2017-05-28T00:26:05.808Z,813.6
2017-05-28T00:26:10.119Z,813.49
2017-05-28T00:26:14.430Z,813.47
2017-05-28T00:26:18.685Z,813.52
2017-05-28T00:26:23.134Z,813.49
2017-05-28T00:26:27.560Z,813.46
2017-05-28T00:26:31.872Z,813.47
2017-05-28T00:26:36.300Z,813.42
2017-05-28T00:26:40.610Z,813.4
2017-05-28T00:26:45.046Z,813.38
2017-05-28T00:26:49.482Z,813.38
2017-05-28T00:26:53.796Z,813.4
2017-05-28T00:26:58.224Z,813.36
2017-05-28T00:27:02.751Z,813.34
2017-05-28T00:27:07.183Z,813.31
2017-05-28T00:27:11.372Z,813.31
2017-05-28T00:27:15.684Z,813.27
2017-05-28T00:27:19.941Z,813.27
2017-05-28T00:27:24.369Z,813.22
2017-05-28T00:27:28.796Z,813.25
2017-05-28T00:27:33.102Z,813.2
2017-05-28T00:27:37.411Z,813.19
2017-05-28T00:27:41.723Z,813.16
2017-05-28T00:27:46.161Z,813.14
2017-05-28T00:27:50.539Z,813.15
2017-05-28T00:27:54.860Z,813.12
2017-05-28T00:27:59.055Z,813.11
2017-05-28T00:28:03.664Z,813.11
2017-05-28T00:28:07.619Z,813.08
2017-05-28T00:28:11.808Z,813.07
2017-05-28T00:28:16.002Z,813.05
2017-05-28T00:28:20.195Z,813.04
2017-05-28T00:28:24.511Z,813.02
2017-05-28T00:28:28.942Z,813
2017-05-28T00:28:33.249Z,812.98
2017-05-28T00:28:37.562Z,812.97
2017-05-28T00:28:41.643Z,812.98
2017-05-28T00:28:45.958Z,812.96
2017-05-28T00:28:50.384Z,812.91
2017-05-28T00:28:54.813Z,812.89
2017-05-28T00:28:59.120Z,812.89
2017-05-28T00:29:03.549Z,812.89
2017-05-28T00:29:07.621Z,812.87
2017-05-28T00:29:11.833Z,812.87
2017-05-28T00:29:16.028Z,812.82
2017-05-28T00:29:20.339Z,812.85
2017-05-28T00:29:24.782Z,812.8
2017-05-28T00:29:29.216Z,812.82
2017-05-28T00:29:33.643Z,812.81
2017-05-28T00:29:37.952Z,812.78
2017-05-28T00:29:42.152Z,812.76
2017-05-28T00:29:46.470Z,812.74
2017-05-28T00:29:50.904Z,812.7
2017-05-28T00:29:55.215Z,812.72
2017-05-28T00:29:59.527Z,812.72
2017-05-28T00:30:03.837Z,812.71
2017-05-28T00:30:07.784Z,812.63
2017-05-28T00:30:12.100Z,812.64
2017-05-28T00:30:16.185Z,812.61
2017-05-28T00:30:20.498Z,812.61
2017-05-28T00:30:24.707Z,812.66
2017-05-28T00:30:29.140Z,812.62
2017-05-28T00:30:33.569Z,812.62
2017-05-28T00:30:37.992Z,812.61
2017-05-28T00:30:41.953Z,812.58
2017-05-28T00:30:46.391Z,812.64
2017-05-28T00:30:50.826Z,812.54
2017-05-28T00:30:55.252Z,812.59
2017-05-28T00:30:59.680Z,812.56
2017-05-28T00:31:04.105Z,812.56
2017-05-28T00:31:08.293Z,812.53
2017-05-28T00:31:12.667Z,812.54
2017-05-28T00:31:16.876Z,812.56
2017-05-28T00:31:21.303Z,812.51
2017-05-28T00:31:25.611Z,812.52
2017-05-28T00:31:30.034Z,812.51
2017-05-28T00:31:34.457Z,812.51
2017-05-28T00:31:38.897Z,812.5
2017-05-28T00:31:43.118Z,812.48
2017-05-28T00:31:47.429Z,812.48
2017-05-28T00:31:51.861Z,812.47
2017-05-28T00:31:56.285Z,812.47
2017-05-28T00:32:00.479Z,812.48
2017-05-28T00:32:04.553Z,812.47
2017-05-28T00:32:08.871Z,812.43
2017-05-28T00:32:13.193Z,812.46
2017-05-28T00:32:17.266Z,812.45
2017-05-28T00:32:21.578Z,812.43
2017-05-28T00:32:25.889Z,812.43
2017-05-28T00:32:30.316Z,812.47
2017-05-28T00:32:34.629Z,812.47
2017-05-28T00:32:39.089Z,812.39
2017-05-28T00:32:43.409Z,812.43
2017-05-28T00:32:47.841Z,812.41
2017-05-28T00:32:52.274Z,812.42
2017-05-28T00:32:56.471Z,812.46
2017-05-28T00:33:00.901Z,812.4
2017-05-28T00:33:05.315Z,812.44
2017-05-28T00:33:09.664Z,812.42
2017-05-28T00:33:13.999Z,812.42
2017-05-28T00:33:18.427Z,812.43
2017-05-28T00:33:22.854Z,812.47
2017-05-28T00:33:27.057Z,812.42
2017-05-28T00:33:31.482Z,812.44
2017-05-28T00:33:35.803Z,812.43
2017-05-28T00:33:40.289Z,812.41
2017-05-28T00:33:44.376Z,812.44
2017-05-28T00:33:48.814Z,812.41
2017-05-28T00:33:53.243Z,812.42
2017-05-28T00:33:57.565Z,812.43
2017-05-28T00:34:01.755Z,812.39
2017-05-28T00:34:05.959Z,812.41
2017-05-28T00:34:10.229Z,812.44
2017-05-28T00:34:14.538Z,812.44
2017-05-28T00:34:18.500Z,812.46
2017-05-28T00:34:22.810Z,812.49
2017-05-28T00:34:27.119Z,812.42
2017-05-28T00:34:31.551Z,812.42
2017-05-28T00:34:35.867Z,812.49
2017-05-28T00:34:40.305Z,812.47
2017-05-28T00:34:44.386Z,812.49
2017-05-28T00:34:48.817Z,812.49
2017-05-28T00:34:53.250Z,812.5
2017-05-28T00:34:57.447Z,812.53
2017-05-28T00:35:01.801Z,812.51
2017-05-28T00:35:06.230Z,812.52
2017-05-28T00:35:10.676Z,812.51
2017-05-28T00:35:14.987Z,812.51
2017-05-28T00:35:19.294Z,812.52
2017-05-28T00:35:23.599Z,812.52
2017-05-28T00:35:28.023Z,812.56
2017-05-28T00:35:32.459Z,812.51
2017-05-28T00:35:36.775Z,812.53
2017-05-28T00:35:41.087Z,812.55
2017-05-28T00:35:45.393Z,812.56
2017-05-28T00:35:49.583Z,812.54
2017-05-28T00:35:54.007Z,812.52
2017-05-28T00:35:58.078Z,812.48
2017-05-28T00:36:02.379Z,812.54
2017-05-28T00:36:06.694Z,812.54
2017-05-28T00:36:11.125Z,812.54
2017-05-28T00:36:15.552Z,812.53
2017-05-28T00:36:19.857Z,812.54
2017-05-28T00:36:24.169Z,812.55
2017-05-28T00:36:28.601Z,812.53
2017-05-28T00:36:33.039Z,812.51
2017-05-28T00:36:37.355Z,812.53
2017-05-28T00:36:41.545Z,812.49
2017-05-28T00:36:45.858Z,812.5
2017-05-28T00:36:50.279Z,812.55
2017-05-28T00:36:54.701Z,812.52
2017-05-28T00:36:58.895Z,812.5
2017-05-28T00:37:03.462Z,812.53
2017-05-28T00:37:07.899Z,812.5
2017-05-28T00:37:12.326Z,812.51
2017-05-28T00:37:16.632Z,812.52
2017-05-28T00:37:20.824Z,812.48
2017-05-28T00:37:24.907Z,812.49
2017-05-28T00:37:29.220Z,812.52
2017-05-28T00:37:33.655Z,812.51
2017-05-28T00:37:38.088Z,812.51
2017-05-28T00:37:42.283Z,812.5
2017-05-28T00:37:46.597Z,812.48
2017-05-28T00:37:51.023Z,812.45
2017-05-28T00:37:55.457Z,812.48
2017-05-28T00:37:59.532Z,812.48
2017-05-28T00:38:04.067Z,812.47
2017-05-28T00:38:08.267Z,812.45
2017-05-28T00:38:12.579Z,812.4
2017-05-28T00:38:16.884Z,812.44
2017-05-28T00:38:21.189Z,812.41
2017-05-28T00:38:25.515Z,812.4
2017-05-28T00:38:29.827Z,812.45
2017-05-28T00:38:34.261Z,812.43
2017-05-28T00:38:38.685Z,812.38
2017-05-28T00:38:42.637Z,812.41
2017-05-28T00:38:46.838Z,812.41
2017-05-28T00:38:51.263Z,812.37
2017-05-28T00:38:55.462Z,812.32
2017-05-28T00:38:59.776Z,812.35
2017-05-28T00:39:04.217Z,812.35
2017-05-28T00:39:08.646Z,812.35
2017-05-28T00:39:12.953Z,812.35
2017-05-28T00:39:17.257Z,812.3
2017-05-28T00:39:21.326Z,812.32
2017-05-28T00:39:25.757Z,812.3
2017-05-28T00:39:30.190Z,812.24
2017-05-28T00:39:34.627Z,812.21
2017-05-28T00:39:38.941Z,812.27
2017-05-28T00:39:43.258Z,812.25
2017-05-28T00:39:47.331Z,812.25
2017-05-28T00:39:51.757Z,812.24
2017-05-28T00:39:56.183Z,812.24
2017-05-28T00:40:00.504Z,812.2
2017-05-28T00:40:04.836Z,812.16
2017-05-28T00:40:08.913Z,812.15
2017-05-28T00:40:13.232Z,812.17
2017-05-28T00:40:17.425Z,812.17
2017-05-28T00:40:21.615Z,812.12
2017-05-28T00:40:25.830Z,812.11
2017-05-28T00:40:30.266Z,812.09
2017-05-28T00:40:34.577Z,812.07
2017-05-28T00:40:39.009Z,812.07
2017-05-28T00:40:43.326Z,812.04
2017-05-28T00:40:47.636Z,812.03
2017-05-28T00:40:51.835Z,812.01
2017-05-28T00:40:56.303Z,811.97
2017-05-28T00:41:00.615Z,812
2017-05-28T00:41:05.191Z,811.95
2017-05-28T00:41:09.496Z,811.97
2017-05-28T00:41:13.930Z,811.92
2017-05-28T00:41:18.352Z,811.93
2017-05-28T00:41:22.794Z,811.89
2017-05-28T00:41:27.172Z,811.89
2017-05-28T00:41:31.482Z,811.86
2017-05-28T00:41:35.796Z,811.86
2017-05-28T00:41:40.222Z,811.86
2017-05-28T00:41:44.296Z,811.81
2017-05-28T00:41:48.603Z,811.8
2017-05-28T00:41:53.030Z,811.78
2017-05-28T00:41:57.228Z,811.81
2017-05-28T00:42:01.700Z,811.76
2017-05-28T00:42:06.008Z,811.74
2017-05-28T00:42:10.215Z,811.71
2017-05-28T00:42:14.650Z,811.73
2017-05-28T00:42:19.083Z,811.68
2017-05-28T00:42:23.525Z,811.68
2017-05-28T00:42:27.843Z,811.64
2017-05-28T00:42:32.282Z,811.62
2017-05-28T00:42:36.591Z,811.59
2017-05-28T00:42:40.912Z,811.57
2017-05-28T00:42:45.231Z,811.59
2017-05-28T00:42:49.440Z,811.58
2017-05-28T00:42:53.768Z,811.55
2017-05-28T00:42:57.968Z,811.5
2017-05-28T00:43:02.589Z,811.53
2017-05-28T00:43:06.899Z,811.49
2017-05-28T00:43:11.215Z,811.44
2017-05-28T00:43:15.410Z,811.47
2017-05-28T00:43:19.606Z,811.45
2017-05-28T00:43:23.972Z,811.43
2017-05-28T00:43:28.428Z,811.42
2017-05-28T00:43:32.735Z,811.39
2017-05-28T00:43:37.167Z,811.4
2017-05-28T00:43:41.354Z,811.37
2017-05-28T00:43:45.672Z,811.33
2017-05-28T00:43:49.881Z,811.33
2017-05-28T00:43:54.197Z,811.31
2017-05-28T00:43:58.647Z,811.28
2017-05-28T00:44:03.145Z,811.27
2017-05-28T00:44:07.219Z,811.26
2017-05-28T00:44:11.529Z,811.22
2017-05-28T00:44:15.727Z,811.22
2017-05-28T00:44:20.042Z,811.21
2017-05-28T00:44:24.355Z,811.18
2017-05-28T00:44:28.806Z,811.14
2017-05-28T00:44:33.236Z,811.15
2017-05-28T00:44:37.663Z,811.1
2017-05-28T00:44:41.862Z,811.1
2017-05-28T00:44:46.292Z,811.09
2017-05-28T00:44:50.491Z,811.05
2017-05-28T00:44:54.691Z,811.05
2017-05-28T00:44:59.010Z,811.03
2017-05-28T00:45:03.434Z,811
2017-05-28T00:45:07.634Z,810.97
2017-05-28T00:45:11.826Z,810.97
2017-05-28T00:45:16.135Z,810.93
2017-05-28T00:45:20.559Z,810.95
2017-05-28T00:45:24.754Z,810.94
2017-05-28T00:45:29.205Z,810.92
2017-05-28T00:45:33.638Z,810.9
2017-05-28T00:45:37.945Z,810.85
2017-05-28T00:45:42.139Z,810.85
2017-05-28T00:45:46.573Z,810.83
2017-05-28T00:45:51.003Z,810.82
2017-05-28T00:45:55.203Z,810.82
2017-05-28T00:45:59.626Z,810.79
2017-05-28T00:46:04.057Z,810.77
2017-05-28T00:46:08.483Z,810.75
2017-05-28T00:46:12.794Z,810.71
2017-05-28T00:46:16.990Z,810.7
2017-05-28T00:46:21.305Z,810.7
2017-05-28T00:46:25.624Z,810.67
2017-05-28T00:46:30.049Z,810.68
2017-05-28T00:46:34.357Z,810.65
2017-05-28T00:46:38.545Z,810.65
2017-05-28T00:46:42.853Z,810.62
2017-05-28T00:46:47.167Z,810.62
2017-05-28T00:46:51.605Z,810.55
2017-05-28T00:46:55.814Z,810.57
2017-05-28T00:47:00.125Z,810.56
2017-05-28T00:47:04.437Z,810.55
2017-05-28T00:47:08.863Z,810.54
2017-05-28T00:47:13.290Z,810.51
2017-05-28T00:47:17.728Z,810.52
2017-05-28T00:47:22.167Z,810.48
2017-05-28T00:47:26.474Z,810.48
2017-05-28T00:47:30.903Z,810.5
2017-05-28T00:47:35.328Z,810.45
2017-05-28T00:47:39.642Z,810.46
2017-05-28T00:47:43.949Z,810.45
2017-05-28T00:47:48.266Z,810.46
2017-05-28T00:47:52.543Z,810.4
2017-05-28T00:47:56.985Z,810.4
2017-05-28T00:48:01.295Z,810.41
2017-05-28T00:48:05.607Z,810.39
2017-05-28T00:48:09.800Z,810.37
2017-05-28T00:48:14.109Z,810.33
2017-05-28T00:48:18.426Z,810.34
2017-05-28T00:48:22.692Z,810.33
2017-05-28T00:48:27.127Z,810.32
2017-05-28T00:48:31.439Z,810.29
2017-05-28T00:48:35.639Z,810.3
2017-05-28T00:48:39.951Z,810.29
2017-05-28T00:48:44.258Z,810.27
2017-05-28T00:48:48.461Z,810.27
2017-05-28T00:48:52.660Z,810.25
2017-05-28T00:48:56.975Z,810.22
2017-05-28T00:49:01.167Z,810.22
2017-05-28T00:49:05.798Z,810.19
2017-05-28T00:49:10.112Z,810.15
2017-05-28T00:49:14.421Z,810.14
2017-05-28T00:49:18.734Z,810.17
2017-05-28T00:49:23.231Z,810.14
2017-05-28T00:49:27.673Z,810.12
2017-05-28T00:49:32.103Z,810.11
2017-05-28T00:49:36.534Z,810.1
2017-05-28T00:49:40.721Z,810.1
2017-05-28T00:49:44.917Z,810.11
2017-05-28T00:49:49.111Z,810.07
2017-05-28T00:49:53.554Z,810.04
2017-05-28T00:49:57.637Z,810.05
2017-05-28T00:50:01.727Z,810.01
2017-05-28T00:50:06.122Z,810.03
2017-05-28T00:50:10.553Z,809.96
2017-05-28T00:50:14.862Z,809.98
2017-05-28T00:50:19.062Z,809.93
2017-05-28T00:50:23.496Z,809.91
2017-05-28T00:50:27.931Z,809.93
2017-05-28T00:50:32.358Z,809.94
2017-05-28T00:50:36.672Z,809.91
2017-05-28T00:50:41.102Z,809.91
2017-05-28T00:50:45.414Z,809.9
2017-05-28T00:50:49.900Z,809.89
2017-05-28T00:50:54.226Z,809.89
2017-05-28T00:50:58.419Z,809.89
2017-05-28T00:51:02.761Z,809.86
2017-05-28T00:51:07.185Z,809.88
2017-05-28T00:51:11.608Z,809.83
2017-05-28T00:51:15.920Z,809.84
2017-05-28T00:51:20.151Z,809.84
2017-05-28T00:51:24.346Z,809.83
2017-05-28T00:51:28.654Z,809.8
2017-05-28T00:51:32.960Z,809.75
2017-05-28T00:51:37.268Z,809.77
2017-05-28T00:51:41.574Z,809.73
2017-05-28T00:51:45.769Z,809.75
2017-05-28T00:51:50.199Z,809.7
2017-05-28T00:51:54.564Z,809.68
2017-05-28T00:51:58.653Z,809.67
2017-05-28T00:52:03.281Z,809.69
2017-05-28T00:52:07.475Z,809.65
2017-05-28T00:52:11.899Z,809.63
2017-05-28T00:52:16.209Z,809.63
2017-05-28T00:52:20.525Z,809.59
2017-05-28T00:52:24.912Z,809.61
2017-05-28T00:52:29.357Z,809.61
2017-05-28T00:52:33.787Z,809.58
2017-05-28T00:52:38.216Z,809.58
2017-05-28T00:52:42.297Z,809.54
2017-05-28T00:52:46.489Z,809.51
2017-05-28T00:52:50.912Z,809.51
2017-05-28T00:52:55.279Z,809.53
2017-05-28T00:52:59.482Z,809.5
2017-05-28T00:53:03.792Z,809.46
2017-05-28T00:53:08.221Z,809.41
2017-05-28T00:53:12.655Z,809.4
2017-05-28T00:53:16.843Z,809.46
2017-05-28T00:53:21.158Z,809.45
2017-05-28T00:53:25.596Z,809.42
2017-05-28T00:53:29.924Z,809.43
2017-05-28T00:53:34.359Z,809.39
2017-05-28T00:53:38.675Z,809.39
2017-05-28T00:53:42.870Z,809.36
2017-05-28T00:53:47.062Z,809.39
2017-05-28T00:53:51.374Z,809.34
2017-05-28T00:53:55.697Z,809.33
2017-05-28T00:54:00.034Z,809.32
2017-05-28T00:54:04.596Z,809.28
2017-05-28T00:54:09.031Z,809.25
2017-05-28T00:54:13.341Z,809.26